createdAt,value
2019-02-25T00:02:26.735Z,3.73
2019-02-25T00:04:55.274Z,3.72
2019-02-25T00:07:23.747Z,3.73
2019-02-25T00:09:51.995Z,3.62
2019-02-25T00:12:20.226Z,3.53
2019-02-25T00:14:48.702Z,3.53
2019-02-25T00:17:16.939Z,3.62
2019-02-25T00:19:45.419Z,3.67
2019-02-25T00:22:13.654Z,3.70
2019-02-25T00:24:42.135Z,3.64
2019-02-25T00:27:10.597Z,3.64
2019-02-25T00:29:38.845Z,3.57
2019-02-25T00:32:07.089Z,3.55
2019-02-25T00:34:35.335Z,3.52
2019-02-25T00:37:03.562Z,3.52
2019-02-25T00:39:31.806Z,3.31
2019-02-25T00:42:00.047Z,3.29
2019-02-25T00:44:28.592Z,3.29
2019-02-25T00:46:56.826Z,3.25
2019-02-25T00:49:25.059Z,3.25
2019-02-25T00:51:53.311Z,3.25
2019-02-25T00:54:21.545Z,3.43
2019-02-25T00:56:49.796Z,3.43
2019-02-25T00:59:18.030Z,3.36
2019-02-25T01:01:46.275Z,3.26
2019-02-25T01:04:14.739Z,3.26
2019-02-25T01:06:42.982Z,3.21
2019-02-25T01:09:11.286Z,3.14
2019-02-25T01:11:39.755Z,3.14
2019-02-25T01:14:07.987Z,3.14
2019-02-25T01:16:36.232Z,3.14
2019-02-25T01:19:04.466Z,3.09
2019-02-25T01:21:32.715Z,3.09
2019-02-25T01:24:00.948Z,3.07
2019-02-25T01:26:29.184Z,3.08
2019-02-25T01:28:57.668Z,3.08
2019-02-25T01:31:25.907Z,3.03
2019-02-25T01:33:54.135Z,3.03
2019-02-25T01:36:22.379Z,2.87
2019-02-25T01:38:50.617Z,2.87
2019-02-25T01:41:18.856Z,2.97
2019-02-25T01:43:47.087Z,2.96
2019-02-25T01:46:15.591Z,2.95
2019-02-25T01:48:44.058Z,2.95
2019-02-25T01:51:12.302Z,2.95
2019-02-25T01:53:40.529Z,3.01
2019-02-25T01:56:09.179Z,3.01
2019-02-25T01:58:37.632Z,3.04
2019-02-25T02:01:05.864Z,3.03
2019-02-25T02:03:34.099Z,2.96
2019-02-25T02:06:02.332Z,3.03
2019-02-25T02:08:30.804Z,3.04
2019-02-25T02:10:59.282Z,3.04
2019-02-25T02:13:27.506Z,2.99
2019-02-25T02:15:55.741Z,2.96
2019-02-25T02:18:24.207Z,3.00
2019-02-25T02:20:52.664Z,2.99
2019-02-25T02:23:20.904Z,2.90
2019-02-25T02:25:49.368Z,2.90
2019-02-25T02:28:17.620Z,2.78
2019-02-25T02:30:45.857Z,2.81
2019-02-25T02:33:14.111Z,2.79
2019-02-25T02:35:42.339Z,2.78
2019-02-25T02:38:10.582Z,2.75
2019-02-25T02:40:38.815Z,2.58
2019-02-25T02:43:07.047Z,2.58
2019-02-25T02:45:41.248Z,2.69
2019-02-25T02:48:30.762Z,2.66
2019-02-25T02:50:58.987Z,2.66
2019-02-25T02:53:27.274Z,2.68
2019-02-25T02:55:55.495Z,2.69
2019-02-25T02:58:23.972Z,2.72
2019-02-25T03:00:52.203Z,2.79
2019-02-25T03:03:20.447Z,2.77
2019-02-25T03:05:48.677Z,2.71
2019-02-25T03:08:17.152Z,2.71
2019-02-25T03:10:45.387Z,2.70
2019-02-25T03:13:13.616Z,2.70
2019-02-25T03:15:41.863Z,2.60
2019-02-25T03:18:10.102Z,2.47
2019-02-25T03:20:38.345Z,2.54
2019-02-25T03:23:06.826Z,2.54
2019-02-25T03:25:35.304Z,2.55
2019-02-25T03:28:03.547Z,2.55
2019-02-25T03:30:32.037Z,2.53
2019-02-25T03:33:00.278Z,2.56
2019-02-25T03:35:28.512Z,2.56
2019-02-25T03:37:56.744Z,2.59
2019-02-25T03:40:24.998Z,2.58
2019-02-25T03:42:53.473Z,2.57
2019-02-25T03:45:21.813Z,2.56
2019-02-25T03:47:50.041Z,2.50
2019-02-25T03:50:18.508Z,2.45
2019-02-25T03:52:46.744Z,2.45
2019-02-25T03:55:19.330Z,2.41
2019-02-25T03:57:47.691Z,2.44
2019-02-25T04:00:25.548Z,2.48
2019-02-25T04:02:54.073Z,2.48
2019-02-25T04:05:22.311Z,2.51
2019-02-25T04:07:50.572Z,2.53
2019-02-25T04:10:19.647Z,2.53
2019-02-25T04:12:48.106Z,2.43
2019-02-25T04:15:19.211Z,2.43
2019-02-25T04:17:47.444Z,2.43
2019-02-25T04:20:16.821Z,2.42
2019-02-25T04:22:45.294Z,2.39
2019-02-25T04:25:13.541Z,2.41
2019-02-25T04:27:41.765Z,2.38
2019-02-25T04:30:15.121Z,2.29
2019-02-25T04:32:43.391Z,2.33
2019-02-25T04:35:12.636Z,2.36
2019-02-25T04:37:41.111Z,2.35
2019-02-25T04:40:12.340Z,2.29
2019-02-25T04:42:40.586Z,2.25
2019-02-25T04:45:11.590Z,2.24
2019-02-25T04:47:39.823Z,2.20
2019-02-25T04:50:09.691Z,2.21
2019-02-25T04:52:37.941Z,2.19
2019-02-25T04:55:07.817Z,2.16
2019-02-25T04:57:36.056Z,2.09
2019-02-25T05:00:09.820Z,2.11
2019-02-25T05:02:38.061Z,2.15
2019-02-25T05:05:07.060Z,2.20
2019-02-25T05:07:35.305Z,2.22
2019-02-25T05:10:04.898Z,2.23
2019-02-25T05:12:33.151Z,2.22
2019-02-25T05:15:01.382Z,2.20
2019-02-25T05:17:29.615Z,2.18
2019-02-25T05:19:57.860Z,2.16
2019-02-25T05:22:26.092Z,2.07
2019-02-25T05:24:54.565Z,2.01
2019-02-25T05:27:22.793Z,2.01
2019-02-25T05:29:51.040Z,1.92
2019-02-25T05:32:19.280Z,1.93
2019-02-25T05:34:47.531Z,1.90
2019-02-25T05:37:15.988Z,1.85
2019-02-25T05:39:44.244Z,1.83
2019-02-25T05:42:12.477Z,1.82
2019-02-25T05:44:40.719Z,1.82
2019-02-25T05:47:09.187Z,1.78
2019-02-25T05:49:37.428Z,1.78
2019-02-25T05:52:05.663Z,1.87
2019-02-25T05:54:34.127Z,1.86
2019-02-25T05:57:02.378Z,1.86
2019-02-25T05:59:30.617Z,1.81
2019-02-25T06:01:58.858Z,1.81
2019-02-25T06:04:27.087Z,1.80
2019-02-25T06:06:55.319Z,1.82
2019-02-25T06:09:23.785Z,1.84
2019-02-25T06:11:52.242Z,1.89
2019-02-25T06:14:20.480Z,1.90
2019-02-25T06:16:48.707Z,1.91
2019-02-25T06:19:16.943Z,1.94
2019-02-25T06:21:45.173Z,1.96
2019-02-25T06:24:13.422Z,2.00
2019-02-25T06:26:41.658Z,2.01
2019-02-25T06:29:09.905Z,2.00
2019-02-25T06:31:38.140Z,1.98
2019-02-25T06:34:06.397Z,1.93
2019-02-25T06:36:34.630Z,1.95
2019-02-25T06:39:03.101Z,1.93
2019-02-25T06:41:31.567Z,1.92
2019-02-25T06:44:00.026Z,1.98
2019-02-25T06:46:28.265Z,1.99
2019-02-25T06:48:56.498Z,2.06
2019-02-25T06:51:24.735Z,2.03
2019-02-25T06:53:52.982Z,2.02
2019-02-25T06:56:21.450Z,2.02
2019-02-25T06:58:49.689Z,2.04
2019-02-25T07:01:17.932Z,2.00
2019-02-25T07:03:47.809Z,2.06
2019-02-25T07:06:26.667Z,2.15
2019-02-25T07:09:02.172Z,2.19
2019-02-25T07:11:35.001Z,2.23
2019-02-25T07:14:10.658Z,2.27
2019-02-25T07:16:40.528Z,2.35
2019-02-25T07:19:19.749Z,2.46
2019-02-25T07:21:49.628Z,2.56
2019-02-25T07:24:22.208Z,2.66
2019-02-25T07:27:07.108Z,2.84
2019-02-25T07:29:49.486Z,3.02
2019-02-25T07:32:35.383Z,3.34
2019-02-25T07:35:25.819Z,3.34
2019-02-25T07:37:55.495Z,3.64
2019-02-25T07:40:43.501Z,3.64
2019-02-25T07:43:19.383Z,3.75
2019-02-25T07:45:49.264Z,3.87
2019-02-25T07:48:19.151Z,4.00
2019-02-25T07:50:49.027Z,4.10
2019-02-25T07:53:27.946Z,4.29
2019-02-25T07:56:06.616Z,4.29
2019-02-25T07:58:54.221Z,4.52
2019-02-25T08:01:29.603Z,4.52
2019-02-25T08:04:02.104Z,4.94
2019-02-25T08:06:31.977Z,4.94
2019-02-25T08:09:20.014Z,4.99
2019-02-25T08:11:52.574Z,5.17
2019-02-25T08:14:25.400Z,5.32
2019-02-25T08:16:58.212Z,5.32
2019-02-25T08:19:28.337Z,5.53
2019-02-25T08:22:16.296Z,5.63
2019-02-25T08:25:00.717Z,5.74
2019-02-25T08:27:30.600Z,5.86
2019-02-25T08:30:09.511Z,5.99
2019-02-25T08:32:45.131Z,6.09
2019-02-25T08:35:29.663Z,6.19
2019-02-25T08:38:00.067Z,6.19
2019-02-25T08:40:38.129Z,6.39
2019-02-25T08:43:11.401Z,6.46
2019-02-25T08:45:41.267Z,6.59
2019-02-25T08:48:11.361Z,6.69
2019-02-25T08:50:39.603Z,6.78
2019-02-25T08:53:07.834Z,6.87
2019-02-25T08:55:36.302Z,6.98
2019-02-25T08:58:04.532Z,7.06
2019-02-25T09:00:32.772Z,7.14
2019-02-25T09:03:01.008Z,7.26
2019-02-25T09:05:29.244Z,7.38
2019-02-25T09:07:57.705Z,7.53
2019-02-25T09:10:25.946Z,7.65
2019-02-25T09:12:54.176Z,7.76
2019-02-25T09:15:22.641Z,7.89
2019-02-25T09:17:50.079Z,8.00
2019-02-25T09:20:18.558Z,8.10
2019-02-25T09:22:47.020Z,8.20
2019-02-25T09:25:16.322Z,8.31
2019-02-25T09:27:44.784Z,8.36
2019-02-25T09:30:17.930Z,8.46
2019-02-25T09:32:46.303Z,8.58
2019-02-25T09:35:14.526Z,8.69
2019-02-25T09:37:43.004Z,8.78
2019-02-25T09:40:18.471Z,8.89
2019-02-25T09:42:46.709Z,8.99
2019-02-25T09:45:16.199Z,9.11
2019-02-25T09:47:44.658Z,9.22
2019-02-25T09:50:22.880Z,9.33
2019-02-25T09:52:51.113Z,9.44
2019-02-25T09:55:19.369Z,9.58
2019-02-25T09:57:47.610Z,9.71
2019-02-25T10:00:17.829Z,9.84
2019-02-25T10:02:46.292Z,9.96
2019-02-25T10:05:14.532Z,10.05
2019-02-25T10:07:42.837Z,10.14
2019-02-25T10:10:17.068Z,10.23
2019-02-25T10:12:45.308Z,10.36
2019-02-25T10:15:19.165Z,10.47
2019-02-25T10:17:47.646Z,10.54
2019-02-25T10:20:15.888Z,10.59
2019-02-25T10:22:44.134Z,10.69
2019-02-25T10:25:12.440Z,10.81
2019-02-25T10:27:40.685Z,10.91
2019-02-25T10:30:12.098Z,11.04
2019-02-25T10:32:40.572Z,11.17
2019-02-25T10:35:13.628Z,11.30
2019-02-25T10:37:43.732Z,11.38
2019-02-25T10:40:15.215Z,11.48
2019-02-25T10:42:43.437Z,11.55
2019-02-25T10:45:22.490Z,11.62
2019-02-25T10:47:51.642Z,11.67
2019-02-25T10:50:20.848Z,11.75
2019-02-25T10:52:49.664Z,11.89
2019-02-25T10:55:35.537Z,11.98
2019-02-25T10:58:04.250Z,12.05
2019-02-25T11:00:32.479Z,12.11
2019-02-25T11:03:00.727Z,12.17
2019-02-25T11:05:30.570Z,12.23
2019-02-25T11:07:59.899Z,12.30
2019-02-25T11:10:32.592Z,12.33
2019-02-25T11:13:02.108Z,12.42
2019-02-25T11:15:32.601Z,12.50
2019-02-25T11:18:00.850Z,12.59
2019-02-25T11:20:29.709Z,12.69
2019-02-25T11:22:59.060Z,12.76
2019-02-25T11:25:28.471Z,12.72
2019-02-25T11:27:57.518Z,12.81
2019-02-25T11:30:25.742Z,12.82
2019-02-25T11:32:56.183Z,12.84
2019-02-25T11:35:24.175Z,12.92
2019-02-25T11:37:54.726Z,12.95
2019-02-25T11:40:22.691Z,12.91
2019-02-25T11:42:51.172Z,12.95
2019-02-25T11:45:20.438Z,12.95
2019-02-25T11:47:48.682Z,13.02
2019-02-25T11:50:18.456Z,13.04
2019-02-25T11:52:46.990Z,13.10
2019-02-25T11:55:16.221Z,13.14
2019-02-25T11:57:44.536Z,13.14
2019-02-25T12:00:15.949Z,12.91
2019-02-25T12:02:44.187Z,13.03
2019-02-25T12:05:13.020Z,13.08
2019-02-25T12:07:41.270Z,13.08
2019-02-25T12:10:13.925Z,13.13
2019-02-25T12:12:42.159Z,13.15
2019-02-25T12:15:13.407Z,13.20
2019-02-25T12:17:41.874Z,13.23
2019-02-25T12:20:11.857Z,13.26
2019-02-25T12:22:40.120Z,13.26
2019-02-25T12:25:14.054Z,13.31
2019-02-25T12:27:42.530Z,13.33
2019-02-25T12:30:22.628Z,13.26
2019-02-25T12:32:50.870Z,13.29
2019-02-25T12:35:19.337Z,13.33
2019-02-25T12:37:47.572Z,13.38
2019-02-25T12:40:16.756Z,13.40
2019-02-25T12:42:45.022Z,13.47
2019-02-25T12:45:14.941Z,13.49
2019-02-25T12:47:43.460Z,13.47
2019-02-25T12:50:13.802Z,13.51
2019-02-25T12:52:43.556Z,13.55
2019-02-25T12:55:13.031Z,13.59
2019-02-25T12:57:41.507Z,13.66
2019-02-25T13:00:13.239Z,13.74
2019-02-25T13:02:41.485Z,13.78
2019-02-25T13:05:12.592Z,13.79
2019-02-25T13:07:41.030Z,13.86
2019-02-25T13:10:11.412Z,13.88
2019-02-25T13:12:39.654Z,13.94
2019-02-25T13:15:14.134Z,13.96
2019-02-25T13:17:42.613Z,13.99
2019-02-25T13:20:12.689Z,14.02
2019-02-25T13:22:40.931Z,14.02
2019-02-25T13:25:13.204Z,14.05
2019-02-25T13:27:41.895Z,14.06
2019-02-25T13:30:16.035Z,14.04
2019-02-25T13:32:44.282Z,14.08
2019-02-25T13:35:13.835Z,14.12
2019-02-25T13:37:42.146Z,14.17
2019-02-25T13:40:12.588Z,14.24
2019-02-25T13:42:40.934Z,14.29
2019-02-25T13:45:18.523Z,14.34
2019-02-25T13:47:46.770Z,14.38
2019-02-25T13:50:16.381Z,14.39
2019-02-25T13:52:48.584Z,14.39
2019-02-25T13:55:18.757Z,14.42
2019-02-25T13:57:46.996Z,14.50
2019-02-25T14:00:18.409Z,14.55
2019-02-25T14:02:46.940Z,14.61
2019-02-25T14:05:15.398Z,14.67
2019-02-25T14:07:43.954Z,14.67
2019-02-25T14:10:15.922Z,14.69
2019-02-25T14:12:44.160Z,14.67
2019-02-25T14:15:24.077Z,14.70
2019-02-25T14:17:52.626Z,14.69
2019-02-25T14:20:22.031Z,14.69
2019-02-25T14:22:50.489Z,14.75
2019-02-25T14:25:21.909Z,14.75
2019-02-25T14:27:50.374Z,14.77
2019-02-25T14:30:21.844Z,14.91
2019-02-25T14:32:52.917Z,15.02
2019-02-25T14:35:22.572Z,15.18
2019-02-25T14:37:50.843Z,15.39
2019-02-25T14:40:21.704Z,15.56
2019-02-25T14:42:51.987Z,15.71
2019-02-25T14:45:21.966Z,15.87
2019-02-25T14:47:55.467Z,16.03
2019-02-25T14:50:23.587Z,16.22
2019-02-25T14:52:52.214Z,16.28
2019-02-25T14:55:20.725Z,16.43
2019-02-25T14:57:48.965Z,16.45
2019-02-25T15:00:26.803Z,16.52
2019-02-25T15:02:55.357Z,16.60
2019-02-25T15:05:27.118Z,16.67
2019-02-25T15:07:55.871Z,16.78
2019-02-25T15:10:29.071Z,16.90
2019-02-25T15:12:58.503Z,17.00
2019-02-25T15:15:24.367Z,17.10
2019-02-25T15:17:52.841Z,17.20
2019-02-25T15:20:23.373Z,17.32
2019-02-25T15:22:52.518Z,17.44
2019-02-25T15:25:21.139Z,17.52
2019-02-25T15:27:49.373Z,17.57
2019-02-25T15:30:28.214Z,17.64
2019-02-25T15:32:58.897Z,17.68
2019-02-25T15:35:31.454Z,17.73
2019-02-25T15:37:57.913Z,17.80
2019-02-25T15:40:27.395Z,17.89
2019-02-25T15:43:10.350Z,17.90
2019-02-25T15:45:40.682Z,17.95
2019-02-25T15:48:13.079Z,17.97
2019-02-25T15:50:44.126Z,18.04
2019-02-25T15:53:12.411Z,18.11
2019-02-25T15:55:41.396Z,18.18
2019-02-25T15:58:09.969Z,18.21
2019-02-25T16:00:38.511Z,18.24
2019-02-25T16:03:09.128Z,18.29
2019-02-25T16:05:38.671Z,18.29
2019-02-25T16:08:07.036Z,18.27
2019-02-25T16:10:35.270Z,18.17
2019-02-25T16:13:05.999Z,18.06
2019-02-25T16:15:33.610Z,17.88
2019-02-25T16:18:02.536Z,17.65
2019-02-25T16:20:32.597Z,17.36
2019-02-25T16:23:02.829Z,16.95
2019-02-25T16:25:32.203Z,16.77
2019-02-25T16:28:00.916Z,16.52
2019-02-25T16:30:30.719Z,16.29
2019-02-25T16:33:04.682Z,16.09
2019-02-25T16:35:32.258Z,15.90
2019-02-25T16:38:02.433Z,15.70
2019-02-25T16:40:32.923Z,15.51
2019-02-25T16:43:02.776Z,15.34
2019-02-25T16:45:35.037Z,15.19
2019-02-25T16:48:01.350Z,15.03
2019-02-25T16:50:30.384Z,14.91
2019-02-25T16:53:03.567Z,14.80
2019-02-25T16:55:28.850Z,14.69
2019-02-25T16:57:58.942Z,14.59
2019-02-25T17:00:29.980Z,14.50
2019-02-25T17:03:01.388Z,14.41
2019-02-25T17:05:28.552Z,14.32
2019-02-25T17:07:57.290Z,14.23
2019-02-25T17:10:27.107Z,14.12
2019-02-25T17:12:56.225Z,13.99
2019-02-25T17:15:26.928Z,13.84
2019-02-25T17:17:58.327Z,13.68
2019-02-25T17:20:27.777Z,13.53
2019-02-25T17:22:55.330Z,13.38
2019-02-25T17:25:26.851Z,13.21
2019-02-25T17:27:53.538Z,13.05
2019-02-25T17:30:25.767Z,12.88
2019-02-25T17:32:54.298Z,12.73
2019-02-25T17:35:25.947Z,12.58
2019-02-25T17:37:55.537Z,12.45
2019-02-25T17:40:23.583Z,12.31
2019-02-25T17:42:53.920Z,12.19
2019-02-25T17:45:29.482Z,12.18
2019-02-25T17:47:58.430Z,12.14
2019-02-25T17:50:27.165Z,12.05
2019-02-25T17:52:55.398Z,11.95
2019-02-25T17:55:29.399Z,11.87
2019-02-25T17:58:00.714Z,11.78
2019-02-25T18:00:31.955Z,11.70
2019-02-25T18:03:03.182Z,11.63
2019-02-25T18:05:33.510Z,11.57
2019-02-25T18:08:02.993Z,11.49
2019-02-25T18:10:31.578Z,11.40
2019-02-25T18:13:01.275Z,11.31
2019-02-25T18:15:32.804Z,11.14
2019-02-25T18:18:01.142Z,10.98
2019-02-25T18:20:29.551Z,10.88
2019-02-25T18:22:58.252Z,10.79
2019-02-25T18:25:26.492Z,10.72
2019-02-25T18:27:54.732Z,10.65
2019-02-25T18:30:32.764Z,10.56
2019-02-25T18:33:04.631Z,10.48
2019-02-25T18:35:31.566Z,10.40
2019-02-25T18:38:00.885Z,10.33
2019-02-25T18:40:29.958Z,10.26
2019-02-25T18:43:00.243Z,10.20
2019-02-25T18:45:28.331Z,10.14
2019-02-25T18:47:56.580Z,10.07
2019-02-25T18:50:26.968Z,10.01
2019-02-25T18:52:57.198Z,9.94
2019-02-25T18:55:29.150Z,9.88
2019-02-25T18:57:57.035Z,9.79
2019-02-25T19:00:34.958Z,9.71
2019-02-25T19:03:04.815Z,9.81
2019-02-25T19:05:34.365Z,9.78
2019-02-25T19:08:05.108Z,9.72
2019-02-25T19:10:33.600Z,9.68
2019-02-25T19:13:02.125Z,9.64
2019-02-25T19:15:30.655Z,9.59
2019-02-25T19:17:58.891Z,9.52
2019-02-25T19:20:27.487Z,9.44
2019-02-25T19:22:58.435Z,9.39
2019-02-25T19:25:25.944Z,9.36
2019-02-25T19:27:56.443Z,9.31
2019-02-25T19:30:25.403Z,9.27
2019-02-25T19:32:55.036Z,9.21
2019-02-25T19:35:25.763Z,9.16
2019-02-25T19:37:53.614Z,9.12
2019-02-25T19:40:24.550Z,9.07
2019-02-25T19:42:54.258Z,9.06
2019-02-25T19:45:22.904Z,9.04
2019-02-25T19:47:51.237Z,8.98
2019-02-25T19:50:21.164Z,8.93
2019-02-25T19:52:49.621Z,8.90
2019-02-25T19:55:20.507Z,8.85
2019-02-25T19:57:48.226Z,8.79
2019-02-25T20:00:25.765Z,8.75
2019-02-25T20:02:54.087Z,8.70
2019-02-25T20:05:24.146Z,8.66
2019-02-25T20:07:54.605Z,8.63
2019-02-25T20:10:22.354Z,8.59
2019-02-25T20:12:53.168Z,8.55
2019-02-25T20:15:25.377Z,8.51
2019-02-25T20:17:55.300Z,8.45
2019-02-25T20:20:25.200Z,8.40
2019-02-25T20:22:53.447Z,8.38
2019-02-25T20:25:24.520Z,8.33
2019-02-25T20:27:52.853Z,8.33
2019-02-25T20:30:23.695Z,8.31
2019-02-25T20:32:52.471Z,8.29
2019-02-25T20:35:22.225Z,8.28
2019-02-25T20:37:52.951Z,8.23
2019-02-25T20:40:21.833Z,8.21
2019-02-25T20:42:51.237Z,8.16
2019-02-25T20:45:30.457Z,8.12
2019-02-25T20:47:59.703Z,8.07
2019-02-25T20:50:28.586Z,8.05
2019-02-25T20:52:59.152Z,7.90
2019-02-25T20:55:27.569Z,7.80
2019-02-25T20:57:56.720Z,7.73
2019-02-25T21:00:25.945Z,7.67
2019-02-25T21:02:54.188Z,7.61
2019-02-25T21:05:24.675Z,7.59
2019-02-25T21:07:53.439Z,7.58
2019-02-25T21:10:24.827Z,7.55
2019-02-25T21:12:54.586Z,7.51
2019-02-25T21:15:22.884Z,7.48
2019-02-25T21:17:52.020Z,7.45
2019-02-25T21:20:21.505Z,7.47
2019-02-25T21:22:52.938Z,7.47
2019-02-25T21:25:24.414Z,7.46
2019-02-25T21:27:51.039Z,7.45
2019-02-25T21:30:22.681Z,7.43
2019-02-25T21:32:51.966Z,7.43
2019-02-25T21:35:23.457Z,7.43
2019-02-25T21:37:52.847Z,7.40
2019-02-25T21:40:25.072Z,7.32
2019-02-25T21:42:54.423Z,7.31
2019-02-25T21:45:25.172Z,7.29
2019-02-25T21:47:56.033Z,7.29
2019-02-25T21:50:26.269Z,7.32
2019-02-25T21:52:53.395Z,7.33
2019-02-25T21:55:23.748Z,7.31
2019-02-25T21:57:54.349Z,7.29
2019-02-25T22:00:23.197Z,7.20
2019-02-25T22:02:52.676Z,7.16
2019-02-25T22:05:23.581Z,7.13
2019-02-25T22:07:54.336Z,7.10
2019-02-25T22:10:21.214Z,7.05
2019-02-25T22:12:49.449Z,6.99
2019-02-25T22:15:19.694Z,6.92
2019-02-25T22:17:50.632Z,6.89
2019-02-25T22:20:21.345Z,6.89
2019-02-25T22:22:49.488Z,6.84
2019-02-25T22:25:22.151Z,6.79
2019-02-25T22:27:50.379Z,6.73
2019-02-25T22:30:18.922Z,6.65
2019-02-25T22:32:47.157Z,6.61
2019-02-25T22:35:15.621Z,6.55
2019-02-25T22:37:46.796Z,6.47
2019-02-25T22:40:17.544Z,6.45
2019-02-25T22:42:47.929Z,6.44
2019-02-25T22:45:22.650Z,6.45
2019-02-25T22:47:50.957Z,6.43
2019-02-25T22:50:19.427Z,6.41
2019-02-25T22:52:52.236Z,6.37
2019-02-25T22:55:20.192Z,6.31
2019-02-25T22:57:50.936Z,6.26
2019-02-25T23:00:42.332Z,6.21
2019-02-25T23:03:11.388Z,6.18
2019-02-25T23:05:42.970Z,6.16
2019-02-25T23:08:13.113Z,6.15
2019-02-25T23:10:42.544Z,6.15
2019-02-25T23:13:10.973Z,6.16
2019-02-25T23:15:39.208Z,6.17
2019-02-25T23:18:10.039Z,6.14
2019-02-25T23:20:37.403Z,6.14
2019-02-25T23:23:06.664Z,6.13
2019-02-25T23:25:34.947Z,6.12
2019-02-25T23:28:03.184Z,6.08
2019-02-25T23:30:31.410Z,6.04
2019-02-25T23:32:59.647Z,5.99
2019-02-25T23:35:27.881Z,5.95
2019-02-25T23:37:56.770Z,5.93
2019-02-25T23:40:26.066Z,5.91
2019-02-25T23:42:54.303Z,5.90
2019-02-25T23:45:23.258Z,5.89
2019-02-25T23:47:55.250Z,5.89
2019-02-25T23:50:21.622Z,5.90
2019-02-25T23:52:49.866Z,5.89
2019-02-25T23:55:19.651Z,5.89
2019-02-25T23:57:48.276Z,5.90
